»·PEaware :: DAL1414 KLAX-KSLC

DAL1414 :: KLAX-KSLC

FLIGHT INFORMATION

Flight Status: Arrived
Operator:
Delta Air Lines
More flights by this operator :: More flights under this callsign
Pilot: Kaleb W. (11686)
Aircraft: BOEING 737-300
(B733)
More flights by this aircraft type
Origin: KLAX Los Angeles Intl
United States
Destination: KSLC Salt Lake City Intl
United States
More flights between these airports :: More routes between these airports
Route: +ORCKA2 LAS Q70 BLIPP Q842 WINEN MLF DELTA5
File this flight plan on PilotEdge
Remarks: RMK / POWERED BY SIMBRIEF
Altitude:
(Current/Filed)
37,000ft
Speed:
(Current/Filed)
425kts
Departed: 25-Apr-18 12:51 PM
Arrived: 25-Apr-18 02:29 PM
Distance/Time
Traveled:
512nm/1:38
Distance/Time
To Go:
Arrived

Flight Plot

Page will automatically refresh every two minutes.

Flight plan parsing failed; only flown route is shown


Map Options




Map Legend


Flown Route
Filed Route
Departure Airport
Arrival Airport
Navaid (VOR, NDB)
Fix

Horizontal Profiles

Position Reports

Time Latitude Longitude Heading Altitude Ground
Speed
25-Apr-18 12:21 33.941108 -118.403869 262 119ft 0kts
25-Apr-18 12:22 33.941108 -118.403869 262 119ft 0kts
25-Apr-18 12:23 33.941108 -118.403869 262 119ft 0kts
25-Apr-18 12:24 33.941108 -118.403869 262 119ft 0kts
25-Apr-18 12:25 33.941108 -118.403869 262 119ft 0kts
25-Apr-18 12:26 33.941108 -118.403869 262 119ft 0kts
25-Apr-18 12:27 33.941108 -118.403869 262 119ft 0kts
25-Apr-18 12:28 33.941108 -118.403869 262 119ft 0kts
25-Apr-18 12:29 33.941108 -118.403869 262 119ft 0kts
25-Apr-18 12:30 33.941108 -118.403869 262 119ft 0kts
25-Apr-18 12:31 33.941108 -118.403869 262 119ft 0kts
25-Apr-18 12:32 33.941108 -118.403869 262 119ft 0kts
25-Apr-18 12:33 33.941108 -118.403869 262 119ft 0kts
25-Apr-18 12:34 33.941108 -118.403869 262 119ft 0kts
25-Apr-18 12:35 33.941108 -118.403869 262 119ft 0kts
25-Apr-18 12:36 33.941108 -118.403869 262 119ft 0kts
25-Apr-18 12:37 33.941128 -118.403681 261 119ft 2kts
25-Apr-18 12:38 33.941555 -118.403286 175 119ft 0kts
25-Apr-18 12:39 33.941628 -118.403299 172 119ft 0kts
25-Apr-18 12:40 33.941628 -118.403299 172 119ft 0kts
25-Apr-18 12:41 33.941628 -118.403299 172 119ft 0kts
25-Apr-18 12:42 33.941628 -118.403299 172 119ft 0kts
25-Apr-18 12:43 33.941627 -118.403299 172 119ft 0kts
25-Apr-18 12:44 33.939205 -118.402945 174 119ft 14kts
25-Apr-18 12:45 33.939076 -118.397154 83 110ft 26kts
25-Apr-18 12:46 33.940035 -118.387754 83 102ft 25kts
25-Apr-18 12:47 33.938503 -118.383046 173 99ft 9kts
25-Apr-18 12:48 33.938238 -118.383005 173 99ft 0kts
25-Apr-18 12:49 33.937167 -118.384702 263 102ft 40kts
25-Apr-18 12:50 33.931377 -118.429512 262 988ft 190kts
25-Apr-18 12:51 33.910914 -118.499900 247 2865ft 250kts
25-Apr-18 12:52 33.884845 -118.579281 248 4929ft 260kts
25-Apr-18 12:53 33.859381 -118.658292 247 4987ft 260kts
25-Apr-18 12:54 33.836811 -118.739258 274 4993ft 262kts
25-Apr-18 12:55 33.895275 -118.768987 32 6864ft 283kts
25-Apr-18 12:56 33.910165 -118.684193 97 9719ft 286kts
25-Apr-18 12:57 33.901628 -118.587694 97 9968ft 324kts
25-Apr-18 12:58 33.923127 -118.487711 65 10007ft 334kts
25-Apr-18 12:59 33.960198 -118.395031 59 10002ft 335kts
25-Apr-18 13:00 34.005390 -118.305466 60 12553ft 345kts
25-Apr-18 13:01 34.059009 -118.210109 58 15302ft 363kts
25-Apr-18 13:02 34.115873 -118.109832 58 17810ft 383kts
25-Apr-18 13:03 34.176293 -118.002828 58 20146ft 400kts
25-Apr-18 13:04 34.239712 -117.890100 58 22242ft 418kts
25-Apr-18 13:05 34.305749 -117.772345 58 24142ft 436kts
25-Apr-18 13:06 34.375735 -117.649756 55 25872ft 453kts
25-Apr-18 13:07 34.449640 -117.526147 55 27873ft 458kts
25-Apr-18 13:08 34.523168 -117.402655 54 29860ft 458kts
25-Apr-18 13:09 34.595051 -117.281284 54 31554ft 458kts
25-Apr-18 13:10 34.668763 -117.156561 53 33180ft 455kts
25-Apr-18 13:11 34.742450 -117.031507 52 34413ft 458kts
25-Apr-18 13:12 34.814470 -116.908837 52 35985ft 445kts
25-Apr-18 13:13 34.885859 -116.786844 52 36904ft 445kts
25-Apr-18 13:14 34.963304 -116.669654 44 37077ft 456kts
25-Apr-18 13:15 35.049547 -116.557052 44 37102ft 454kts
25-Apr-18 13:16 35.133303 -116.446664 44 37104ft 454kts
25-Apr-18 13:17 35.217908 -116.334715 45 37073ft 453kts
25-Apr-18 13:18 35.302637 -116.221791 45 37104ft 453kts
25-Apr-18 13:19 35.387671 -116.108384 45 37102ft 453kts
25-Apr-18 13:20 35.472000 -115.995539 45 37102ft 453kts
25-Apr-18 13:21 35.556883 -115.881571 45 37104ft 453kts
25-Apr-18 13:22 35.641134 -115.767761 46 37117ft 453kts
25-Apr-18 13:23 35.724310 -115.652715 46 37129ft 453kts
25-Apr-18 13:24 35.807617 -115.537969 46 37130ft 453kts
25-Apr-18 13:25 35.890415 -115.423527 46 37122ft 453kts
25-Apr-18 13:26 35.971144 -115.311423 46 37096ft 453kts
25-Apr-18 13:27 36.053710 -115.196365 46 37120ft 453kts
25-Apr-18 13:28 36.142425 -115.091870 37 37086ft 451kts
25-Apr-18 13:29 36.237024 -114.990616 37 37079ft 452kts
25-Apr-18 13:30 36.331012 -114.889065 37 37074ft 451kts
25-Apr-18 13:31 36.425103 -114.787021 37 37075ft 452kts
25-Apr-18 13:32 36.519171 -114.684491 37 37075ft 451kts
25-Apr-18 13:33 36.612621 -114.582585 37 37075ft 451kts
25-Apr-18 13:34 36.706635 -114.479757 36 37074ft 451kts
25-Apr-18 13:35 36.810364 -114.396606 27 37096ft 447kts
25-Apr-18 13:36 36.913540 -114.315576 28 37113ft 447kts
25-Apr-18 13:37 37.018129 -114.233098 29 37151ft 446kts
25-Apr-18 13:38 37.119949 -114.152709 30 37110ft 440kts
25-Apr-18 13:39 37.222704 -114.071464 30 37148ft 440kts
25-Apr-18 13:40 37.325563 -113.989682 30 37148ft 440kts
25-Apr-18 13:41 37.428144 -113.907855 30 37148ft 440kts
25-Apr-18 13:42 37.529685 -113.826593 30 37148ft 440kts
25-Apr-18 13:43 37.625690 -113.749496 30 37151ft 440kts
25-Apr-18 13:44 37.727481 -113.667309 30 37234ft 440kts
25-Apr-18 13:45 37.830126 -113.584141 30 37259ft 440kts
25-Apr-18 13:46 37.932040 -113.501063 33 37255ft 440kts
25-Apr-18 13:47 38.023077 -113.398540 40 37259ft 442kts
25-Apr-18 13:48 38.111457 -113.297913 40 37227ft 442kts
25-Apr-18 13:49 38.202769 -113.194136 40 37253ft 442kts
25-Apr-18 13:50 38.293764 -113.090131 40 37248ft 442kts
25-Apr-18 13:51 38.389742 -112.995296 19 37251ft 436kts
25-Apr-18 13:52 38.501796 -112.937963 20 37250ft 435kts
25-Apr-18 13:53 38.613117 -112.878533 19 37248ft 434kts
25-Apr-18 13:54 38.725058 -112.818575 19 34916ft 449kts
25-Apr-18 13:55 38.836555 -112.758593 19 33205ft 429kts
25-Apr-18 13:56 38.937416 -112.704004 19 32319ft 438kts
25-Apr-18 13:57 38.953566 -112.695270 19 32177ft 437kts
25-Apr-18 13:58 39.065399 -112.634700 19 31196ft 438kts
25-Apr-18 13:59 39.174906 -112.575303 19 30165ft 430kts
25-Apr-18 14:00 39.283878 -112.515904 19 29172ft 424kts
25-Apr-18 14:01 39.396443 -112.474404 10 27901ft 428kts
25-Apr-18 14:02 39.509669 -112.436964 11 26665ft 419kts
25-Apr-18 14:03 39.620989 -112.399912 11 24796ft 408kts
25-Apr-18 14:04 39.728789 -112.363922 11 22802ft 396kts
25-Apr-18 14:05 39.832020 -112.329147 12 20827ft 385kts
25-Apr-18 14:06 39.934019 -112.294820 12 18831ft 373kts
25-Apr-18 14:07 40.032403 -112.261659 12 17105ft 358kts
25-Apr-18 14:08 40.127930 -112.229263 12 16937ft 365kts
25-Apr-18 14:09 40.222554 -112.198084 3 15246ft 352kts
25-Apr-18 14:10 40.314170 -112.168167 15 13963ft 348kts
25-Apr-18 14:11 40.405290 -112.135103 13 13391ft 332kts
25-Apr-18 14:12 40.493701 -112.104773 12 13016ft 325kts
25-Apr-18 14:13 40.579399 -112.081464 1 12183ft 314kts
25-Apr-18 14:14 40.662316 -112.081257 353 11012ft 293kts
25-Apr-18 14:15 40.741569 -112.090657 353 11009ft 285kts
25-Apr-18 14:16 40.819859 -112.099964 353 11020ft 284kts
25-Apr-18 14:17 40.897275 -112.109143 353 10832ft 287kts
25-Apr-18 14:18 40.972439 -112.118056 353 9797ft 260kts
25-Apr-18 14:19 41.043531 -112.126524 352 8810ft 251kts
25-Apr-18 14:20 41.101359 -112.104096 67 7976ft 251kts
25-Apr-18 14:21 41.071921 -112.033589 159 8044ft 247kts
25-Apr-18 14:22 41.011817 -112.003151 161 8026ft 231kts
25-Apr-18 14:23 40.954028 -111.984996 171 8044ft 197kts
25-Apr-18 14:24 40.908638 -111.975879 183 6806ft 173kts
25-Apr-18 14:25 40.864620 -111.979580 184 5087ft 166kts
25-Apr-18 14:26 40.821570 -111.978265 177 4432ft 160kts
25-Apr-18 14:27 40.788507 -111.974796 175 4223ft 55kts
25-Apr-18 14:28 40.785155 -111.975380 206 4223ft 0kts
25-Apr-18 14:29 40.784763 -111.975765 230 4225ft 7kts

Navigation Log

Ident Type
Flight plan parsing failed, navigation log unavailable